Time;durP1;ratioP1;P1;durP2;ratioP2;P2;SDS_P1;SDS_P2;PMS_P1;PMS_P2;Temp;Humidity;BMP_temperature;BMP_pressure;BME280_temperature;BME280_humidity;BME280_pressure;Samples;Min_cycle;Max_cycle;Signal;HPM_P1;HPM_P2
2023/08/30 00:00:41;;;;;;;;;;;;;;;13.11;100.00;95939.19;5125782;28;19948;-81
2023/08/30 00:03:07;;;;;;;;;;;;;;;13.10;100.00;95937.59;5125383;28;19938;-80
2023/08/30 00:05:33;;;;;;;;;;;;;;;13.09;100.00;95939.44;5126965;28;19944;-80
2023/08/30 00:07:59;;;;;;;;;;;;;;;13.09;100.00;95933.38;5109008;28;19964;-81
2023/08/30 00:10:25;;;;;;;;;;;;;;;13.10;100.00;95934.94;5126289;28;19949;-80
2023/08/30 00:12:51;;;;;;;;;;;;;;;13.09;100.00;95936.78;5125928;28;19938;-79
2023/08/30 00:15:17;;;;;;;;;;;;;;;13.08;100.00;95937.84;5126267;28;19980;-80
2023/08/30 00:17:43;;;;;;;;;;;;;;;13.09;100.00;95941.28;5126673;28;19963;-80
2023/08/30 00:20:09;;;;;;;;;;;;;;;13.06;100.00;95934.66;5126143;28;19979;-79
2023/08/30 00:22:35;;;;;;;;;;;;;;;13.06;100.00;95941.75;5125779;28;19945;-80
2023/08/30 00:25:01;;;;;;;;;;;;;;;13.05;100.00;95937.53;5124892;28;19964;-80
2023/08/30 00:27:27;;;;;;;;;;;;;;;13.04;100.00;95935.94;5126036;28;19935;-80
2023/08/30 00:29:53;;;;;;;;;;;;;;;13.04;100.00;95943.81;5125976;28;19939;-79
2023/08/30 00:32:19;;;;;;;;;;;;;;;13.03;100.00;95929.09;5126701;28;20217;-80
2023/08/30 00:34:45;;;;;;;;;;;;;;;13.02;100.00;95925.66;5125768;28;19953;-81
2023/08/30 00:37:10;;;;;;;;;;;;;;;13.00;100.00;95915.38;5125821;28;19937;-80
2023/08/30 00:39:39;;;;;;;;;;;;;;;13.01;100.00;95910.91;5126088;28;19934;-79
2023/08/30 00:42:07;;;;;;;;;;;;;;;12.99;100.00;95912.97;5126094;28;20131;-80
2023/08/30 00:44:36;;;;;;;;;;;;;;;12.98;100.00;95906.16;5124468;28;19946;-80
2023/08/30 00:47:02;;;;;;;;;;;;;;;12.96;100.00;95919.53;5107543;28;19943;-79
2023/08/30 00:49:31;;;;;;;;;;;;;;;12.95;100.00;95907.41;5125563;28;19942;-79
2023/08/30 00:51:58;;;;;;;;;;;;;;;12.96;100.00;95908.22;5124437;28;20223;-80
2023/08/30 00:54:24;;;;;;;;;;;;;;;12.94;100.00;95905.84;5125959;28;19950;-79
2023/08/30 00:56:51;;;;;;;;;;;;;;;12.90;100.00;95906.56;5125928;28;19944;-80
2023/08/30 00:59:17;;;;;;;;;;;;;;;12.86;100.00;95901.00;5125417;28;19942;-79
2023/08/30 01:01:43;;;;;;;;;;;;;;;12.85;100.00;95904.69;5126149;28;20290;-80
2023/08/30 01:04:09;;;;;;;;;;;;;;;12.87;100.00;95899.97;5125291;28;19941;-79
2023/08/30 01:06:35;;;;;;;;;;;;;;;12.86;100.00;95893.09;5125805;28;19942;-80
2023/08/30 01:09:01;;;;;;;;;;;;;;;12.87;100.00;95892.06;5125194;28;19954;-79
2023/08/30 01:11:36;;;;;;;;;;;;;;;12.86;100.00;95893.09;5124114;28;20242;-79
2023/08/30 01:14:02;;;;;;;;;;;;;;;12.86;100.00;95894.94;5125070;28;19956;-80
2023/08/30 01:16:28;;;;;;;;;;;;;;;12.85;100.00;95888.06;5125689;28;19944;-79
2023/08/30 01:18:56;;;;;;;;;;;;;;;12.84;100.00;95886.50;5125576;28;20128;-80
2023/08/30 01:21:42;;;;;;;;;;;;;;;12.84;100.00;95886.50;5125341;28;19936;-80
2023/08/30 01:24:11;;;;;;;;;;;;;;;12.84;100.00;95882.03;5102862;28;20143;-80
2023/08/30 01:26:56;;;;;;;;;;;;;;;12.85;100.00;95888.91;5103660;28;19936;-79
2023/08/30 01:29:23;;;;;;;;;;;;;;;12.84;100.00;95887.28;5103120;28;20140;-80
2023/08/30 01:31:49;;;;;;;;;;;;;;;12.83;100.00;95880.44;5086583;28;19940;-80
2023/08/30 01:34:16;;;;;;;;;;;;;;;12.83;100.00;95885.72;5103244;28;19956;-79
2023/08/30 01:36:42;;;;;;;;;;;;;;;12.83;100.00;95882.25;5103605;28;19941;-79
2023/08/30 01:39:10;;;;;;;;;;;;;;;12.80;100.00;95879.09;5102942;28;20156;-80
2023/08/30 01:41:37;;;;;;;;;;;;;;;12.77;100.00;95882.22;5085689;28;19979;-79
2023/08/30 01:44:04;;;;;;;;;;;;;;;12.76;100.00;95879.81;5103157;28;19945;-80
2023/08/30 01:46:31;;;;;;;;;;;;;;;12.75;100.00;95876.41;5102896;28;19937;-79
2023/08/30 01:48:58;;;;;;;;;;;;;;;12.74;100.00;95884.53;5103362;28;19947;-79
2023/08/30 01:51:24;;;;;;;;;;;;;;;12.71;100.00;95880.56;5085776;28;19935;-79
2023/08/30 01:53:52;;;;;;;;;;;;;;;12.70;100.00;95889.47;5102510;28;19961;-79
2023/08/30 01:56:18;;;;;;;;;;;;;;;12.69;100.00;95887.91;5124149;28;19932;-79
2023/08/30 01:58:44;;;;;;;;;;;;;;;12.68;100.00;95881.06;5124246;28;19971;-80
2023/08/30 02:01:10;;;;;;;;;;;;;;;12.68;100.00;95890.78;5124572;28;19979;-80
2023/08/30 02:03:35;;;;;;;;;;;;;;;12.67;100.00;95884.72;5128684;28;19934;-80
2023/08/30 02:06:04;;;;;;;;;;;;;;;12.64;100.00;95890.50;5127685;28;19943;-80
2023/08/30 02:08:37;;;;;;;;;;;;;;;12.65;100.00;95893.91;5128643;28;20238;-79
2023/08/30 02:11:07;;;;;;;;;;;;;;;12.62;100.00;95886.47;5129162;28;20229;-78
2023/08/30 02:13:33;;;;;;;;;;;;;;;12.60;100.00;95886.75;5128509;28;19949;-80
2023/08/30 02:16:00;;;;;;;;;;;;;;;12.57;100.00;95872.22;5110352;28;19937;-79
2023/08/30 02:18:26;;;;;;;;;;;;;;;12.56;100.00;95878.53;5128540;28;19936;-79
2023/08/30 02:20:53;;;;;;;;;;;;;;;12.54;100.00;95879.84;5128455;28;19947;-79
2023/08/30 02:23:19;;;;;;;;;;;;;;;12.53;100.00;95881.66;5128465;28;19948;-79
2023/08/30 02:25:45;;;;;;;;;;;;;;;12.52;100.00;95876.66;5128419;28;19940;-79
2023/08/30 02:28:11;;;;;;;;;;;;;;;12.51;100.00;95888.19;5128305;28;19934;-80
2023/08/30 02:30:37;;;;;;;;;;;;;;;12.49;100.00;95885.00;5128242;28;19964;-79
2023/08/30 02:33:03;;;;;;;;;;;;;;;12.46;100.00;95886.31;5128185;28;19937;-79
2023/08/30 02:35:29;;;;;;;;;;;;;;;12.43;100.00;95893.88;5128609;28;20263;-79
2023/08/30 02:37:55;;;;;;;;;;;;;;;12.42;100.00;95887.81;5128160;28;19940;-79
2023/08/30 02:40:21;;;;;;;;;;;;;;;12.40;100.00;95887.28;5128039;28;19970;-79
2023/08/30 02:42:47;;;;;;;;;;;;;;;12.37;100.00;95885.94;5127169;28;19949;-79
2023/08/30 02:45:13;;;;;;;;;;;;;;;12.35;100.00;95882.75;5128013;28;19934;-80
2023/08/30 02:47:38;;;;;;;;;;;;;;;12.33;100.00;95889.28;5109748;28;20267;-79
2023/08/30 02:50:04;;;;;;;;;;;;;;;12.33;100.00;95886.66;5128729;28;20186;-79
2023/08/30 02:52:30;;;;;;;;;;;;;;;12.30;100.00;95889.75;5127889;28;19940;-80
2023/08/30 02:54:56;;;;;;;;;;;;;;;12.30;100.00;95890.53;5126624;28;20247;-79
2023/08/30 02:57:22;;;;;;;;;;;;;;;12.29;100.00;95883.72;5127232;28;19933;-79
2023/08/30 02:59:48;;;;;;;;;;;;;;;12.29;100.00;95894.22;5127721;28;19987;-80
2023/08/30 03:02:14;;;;;;;;;;;;;;;12.29;100.00;95890.81;5128174;28;19952;-79
2023/08/30 03:04:39;;;;;;;;;;;;;;;12.27;100.00;95890.25;5127634;28;19938;-79
2023/08/30 03:07:05;;;;;;;;;;;;;;;12.23;100.00;95889.94;5127174;28;19949;-79
2023/08/30 03:09:31;;;;;;;;;;;;;;;12.19;100.00;95884.34;5127544;28;19934;-79
2023/08/30 03:11:57;;;;;;;;;;;;;;;12.17;100.00;95875.13;5127729;28;19947;-78
2023/08/30 03:14:23;;;;;;;;;;;;;;;12.16;100.00;95876.97;5127188;28;19955;-78
2023/08/30 03:16:48;;;;;;;;;;;;;;;12.17;100.00;95880.38;5128195;28;20202;-79
2023/08/30 03:19:17;;;;;;;;;;;;;;;12.19;100.00;95880.94;5127918;28;20216;-79
2023/08/30 03:21:42;;;;;;;;;;;;;;;12.15;100.00;95890.34;5127013;28;20226;-79
2023/08/30 03:24:08;;;;;;;;;;;;;;;12.09;100.00;95884.22;5126197;28;19934;-79
2023/08/30 03:26:34;;;;;;;;;;;;;;;12.03;100.00;95879.91;5127274;28;19933;-78
2023/08/30 03:29:00;;;;;;;;;;;;;;;12.01;100.00;95884.63;5127143;28;20291;-79
2023/08/30 03:31:26;;;;;;;;;;;;;;;11.99;100.00;95881.47;5126787;28;19939;-80
2023/08/30 03:33:52;;;;;;;;;;;;;;;11.98;100.00;95879.84;5126644;28;19964;-79
2023/08/30 03:36:18;;;;;;;;;;;;;;;11.98;100.00;95880.63;5108786;28;19942;-79
2023/08/30 03:38:44;;;;;;;;;;;;;;;12.01;100.00;95881.19;5126969;28;19943;-79
2023/08/30 03:41:11;;;;;;;;;;;;;;;11.99;100.00;95881.47;5125909;28;20152;-78
2023/08/30 03:43:37;;;;;;;;;;;;;;;11.96;100.00;95876.66;5127402;28;20112;-79
2023/08/30 03:46:03;;;;;;;;;;;;;;;11.88;100.00;95875.22;5126561;28;19977;-79
2023/08/30 03:48:29;;;;;;;;;;;;;;;11.79;100.00;95876.63;5126825;28;19945;-79
2023/08/30 03:50:55;;;;;;;;;;;;;;;11.73;100.00;95880.22;5126759;28;19941;-79
2023/08/30 03:53:21;;;;;;;;;;;;;;;11.65;100.00;95878.00;5125526;28;20195;-79
2023/08/30 03:55:47;;;;;;;;;;;;;;;11.58;100.00;95880.78;5127057;28;19957;-79
2023/08/30 03:58:12;;;;;;;;;;;;;;;11.60;100.00;95888.41;5126633;28;19940;-79
2023/08/30 04:00:39;;;;;;;;;;;;;;;11.61;100.00;95882.91;5126479;28;19952;-79
2023/08/30 04:03:09;;;;;;;;;;;;;;;11.64;100.00;95887.72;5126520;28;19945;-79
2023/08/30 04:05:35;;;;;;;;;;;;;;;11.66;100.00;95884.84;5126449;28;20129;-79
2023/08/30 04:08:01;;;;;;;;;;;;;;;11.67;100.00;95889.84;5126366;28;20143;-79
2023/08/30 04:10:27;;;;;;;;;;;;;;;11.71;100.00;95887.53;5126376;28;19940;-80
2023/08/30 04:12:53;;;;;;;;;;;;;;;11.69;100.00;95885.16;5125053;28;19957;-78
2023/08/30 04:15:19;;;;;;;;;;;;;;;11.69;100.00;95886.97;5125131;28;19954;-79
2023/08/30 04:17:45;;;;;;;;;;;;;;;11.70;100.00;95885.97;5126199;28;19934;-79
2023/08/30 04:20:11;;;;;;;;;;;;;;;11.73;100.00;95888.88;5126176;28;20002;-80
2023/08/30 04:22:37;;;;;;;;;;;;;;;11.75;100.00;95886.81;5126670;28;20309;-79
2023/08/30 04:25:03;;;;;;;;;;;;;;;11.76;100.00;95885.00;5126198;28;20002;-78
2023/08/30 04:27:29;;;;;;;;;;;;;;;11.78;100.00;95883.72;5126025;28;19984;-80
2023/08/30 04:29:55;;;;;;;;;;;;;;;11.80;100.00;95891.38;5126509;28;20008;-79
2023/08/30 04:32:21;;;;;;;;;;;;;;;11.79;100.00;95882.69;5125957;28;19939;-79
2023/08/30 04:34:46;;;;;;;;;;;;;;;11.81;100.00;95886.91;5126342;28;19999;-79
2023/08/30 04:37:13;;;;;;;;;;;;;;;11.79;100.00;95889.78;5125828;28;19939;-79
2023/08/30 04:39:40;;;;;;;;;;;;;;;11.74;100.00;95892.34;5124532;28;19938;-79
2023/08/30 04:42:06;;;;;;;;;;;;;;;11.70;100.00;95885.97;5126581;28;19940;-79
2023/08/30 04:44:32;;;;;;;;;;;;;;;11.67;100.00;95883.78;5107443;28;19944;-79
2023/08/30 04:46:58;;;;;;;;;;;;;;;11.68;100.00;95883.56;5125615;28;20239;-79
2023/08/30 04:49:25;;;;;;;;;;;;;;;11.69;100.00;95884.34;5126150;28;19942;-79
2023/08/30 04:51:51;;;;;;;;;;;;;;;11.65;100.00;95883.25;5125141;28;19941;-79
2023/08/30 04:54:17;;;;;;;;;;;;;;;11.64;100.00;95884.28;5125090;28;20134;-79
2023/08/30 04:56:43;;;;;;;;;;;;;;;11.65;100.00;95884.03;5125993;28;19936;-80
2023/08/30 04:59:08;;;;;;;;;;;;;;;11.69;100.00;95879.91;5107466;28;19947;-79
2023/08/30 05:01:34;;;;;;;;;;;;;;;11.69;100.00;95879.91;5124972;28;19995;-79
2023/08/30 05:04:00;;;;;;;;;;;;;;;11.68;100.00;95874.91;5125824;28;19941;-79
2023/08/30 05:06:26;;;;;;;;;;;;;;;11.69;100.00;95872.00;5125274;28;19983;-78
2023/08/30 05:08:52;;;;;;;;;;;;;;;11.70;100.00;95875.47;5124148;28;19956;-80
2023/08/30 05:11:18;;;;;;;;;;;;;;;11.67;100.00;95874.09;5126020;28;19983;-79
2023/08/30 05:13:44;;;;;;;;;;;;;;;11.66;100.00;95876.97;5125180;28;20233;-79
2023/08/30 05:16:09;;;;;;;;;;;;;;;11.67;100.00;95876.72;5124676;28;19957;-79
2023/08/30 05:18:35;;;;;;;;;;;;;;;11.70;100.00;95876.25;5123815;28;19940;-79
2023/08/30 05:21:03;;;;;;;;;;;;;;;11.69;100.00;95882.53;5125061;28;19945;-79
2023/08/30 05:23:29;;;;;;;;;;;;;;;11.69;100.00;95877.25;5125048;28;19936;-79
2023/08/30 05:25:55;;;;;;;;;;;;;;;11.64;100.00;95879.81;5124457;28;19939;-79
2023/08/30 05:28:20;;;;;;;;;;;;;;;11.63;100.00;95880.06;5124984;28;19945;-79
2023/08/30 05:30:46;;;;;;;;;;;;;;;11.64;100.00;95876.41;5125744;28;19941;-79
2023/08/30 05:33:12;;;;;;;;;;;;;;;11.61;100.00;95884.75;5124433;28;20011;-79
2023/08/30 05:35:38;;;;;;;;;;;;;;;11.50;100.00;95879.31;5125298;28;19979;-79
2023/08/30 05:38:04;;;;;;;;;;;;;;;11.44;100.00;95876.84;5122819;28;19958;-79
2023/08/30 05:40:30;;;;;;;;;;;;;;;11.44;100.00;95876.84;5124919;28;20020;-80
2023/08/30 05:42:56;;;;;;;;;;;;;;;11.47;100.00;95874.56;5123622;28;19990;-79
2023/08/30 05:45:21;;;;;;;;;;;;;;;11.47;100.00;95873.78;5124755;28;19938;-79
2023/08/30 05:47:48;;;;;;;;;;;;;;;11.49;100.00;95871.72;5125523;28;19942;-79
2023/08/30 05:50:13;;;;;;;;;;;;;;;11.52;100.00;95874.63;5125273;28;20103;-79
2023/08/30 05:52:44;;;;;;;;;;;;;;;11.58;100.00;95878.94;5125476;28;19948;-79
2023/08/30 05:55:10;;;;;;;;;;;;;;;11.65;100.00;95883.25;5124983;28;19971;-79
2023/08/30 05:57:37;;;;;;;;;;;;;;;11.70;100.00;95884.13;5124677;28;19997;-79
2023/08/30 06:00:04;;;;;;;;;;;;;;;11.75;100.00;95888.66;5125313;28;19945;-79
2023/08/30 06:02:30;;;;;;;;;;;;;;;11.83;100.00;95882.22;5125143;28;20121;-80
2023/08/30 06:04:56;;;;;;;;;;;;;;;11.84;100.00;95881.97;5124670;28;19975;-79
2023/08/30 06:07:22;;;;;;;;;;;;;;;11.85;100.00;95886.19;5124489;28;20116;-79
2023/08/30 06:09:49;;;;;;;;;;;;;;;11.81;100.00;95885.09;5125024;28;20195;-79
2023/08/30 06:12:15;;;;;;;;;;;;;;;11.76;100.00;95880.56;5124457;28;20123;-80
2023/08/30 06:14:41;;;;;;;;;;;;;;;11.79;100.00;95882.69;5125149;28;19956;-79
2023/08/30 06:17:07;;;;;;;;;;;;;;;11.85;100.00;95878.31;5124377;28;19939;-79
2023/08/30 06:19:33;;;;;;;;;;;;;;;11.91;100.00;95889.75;5124426;28;19941;-79
2023/08/30 06:21:59;;;;;;;;;;;;;;;11.94;100.00;95881.38;5125202;28;20139;-80
2023/08/30 06:24:25;;;;;;;;;;;;;;;11.99;100.00;95886.72;5123841;28;20145;-79
2023/08/30 06:26:50;;;;;;;;;;;;;;;11.99;100.00;95881.47;5123022;28;19943;-80
2023/08/30 06:29:16;;;;;;;;;;;;;;;12.00;100.00;95883.03;5124322;28;20007;-79
2023/08/30 06:31:42;;;;;;;;;;;;;;;12.05;100.00;95869.94;5124376;28;19934;-79
2023/08/30 06:34:08;;;;;;;;;;;;;;;12.10;100.00;95883.19;5124961;28;19938;-79
2023/08/30 06:36:34;;;;;;;;;;;;;;;12.14;100.00;95880.88;5124289;28;19997;-79
2023/08/30 06:39:00;;;;;;;;;;;;;;;12.16;100.00;95886.69;5123247;28;19934;-79
2023/08/30 06:41:25;;;;;;;;;;;;;;;12.17;100.00;95885.63;5124239;28;19965;-79
2023/08/30 06:43:51;;;;;;;;;;;;;;;12.19;100.00;95891.44;5123070;28;20001;-78
2023/08/30 06:46:17;;;;;;;;;;;;;;;12.21;100.00;95886.75;5124185;28;19939;-79
2023/08/30 06:48:43;;;;;;;;;;;;;;;12.18;100.00;95888.03;5126486;28;20113;-80
2023/08/30 06:51:10;;;;;;;;;;;;;;;12.17;100.00;95888.28;5126744;28;20231;-79
2023/08/30 06:53:36;;;;;;;;;;;;;;;12.21;100.00;95891.22;5127829;28;19934;-80
2023/08/30 06:56:02;;;;;;;;;;;;;;;12.24;100.00;95888.91;5127694;28;19957;-80
2023/08/30 06:58:28;;;;;;;;;;;;;;;12.26;100.00;95896.53;5127750;28;20249;-80
2023/08/30 07:00:54;;;;;;;;;;;;;;;12.28;100.00;95899.72;5127245;28;19941;-80
2023/08/30 07:03:20;;;;;;;;;;;;;;;12.28;100.00;95884.72;5127688;28;19942;-80
2023/08/30 07:05:47;;;;;;;;;;;;;;;12.32;100.00;95885.84;5127584;28;19937;-80
2023/08/30 07:08:16;;;;;;;;;;;;;;;12.36;100.00;95881.69;5128041;28;19957;-80
2023/08/30 07:10:42;;;;;;;;;;;;;;;12.41;100.00;95875.72;5128098;28;19934;-80
2023/08/30 07:13:11;;;;;;;;;;;;;;;12.46;100.00;95880.25;5126924;28;20204;-80
2023/08/30 07:15:40;;;;;;;;;;;;;;;12.50;100.00;95879.50;5127944;28;20251;-80
2023/08/30 07:18:07;;;;;;;;;;;;;;;12.52;100.00;95874.81;5127366;28;19942;-80
2023/08/30 07:20:33;;;;;;;;;;;;;;;12.53;100.00;95879.00;5127284;28;19949;-80
2023/08/30 07:22:59;;;;;;;;;;;;;;;12.56;100.00;95873.28;5127297;28;20106;-80
2023/08/30 07:25:25;;;;;;;;;;;;;;;12.61;100.00;95875.19;5109117;28;19942;-80
2023/08/30 07:27:51;;;;;;;;;;;;;;;12.59;100.00;95880.69;5127214;28;19974;-79
2023/08/30 07:30:17;;;;;;;;;;;;;;;12.61;100.00;95880.44;5127155;28;19944;-80
2023/08/30 07:32:43;;;;;;;;;;;;;;;12.67;100.00;95883.94;5127156;28;19970;-80
2023/08/30 07:35:09;;;;;;;;;;;;;;;12.71;100.00;95891.09;5126960;28;19949;-80
2023/08/30 07:37:35;;;;;;;;;;;;;;;12.70;100.00;95880.81;5126422;28;20211;-80
2023/08/30 07:40:04;;;;;;;;;;;;;;;12.67;100.00;95876.03;5127425;28;19965;-80
2023/08/30 07:42:30;;;;;;;;;;;;;;;12.67;100.00;95876.84;5127214;28;19947;-81
2023/08/30 07:44:56;;;;;;;;;;;;;;;12.72;100.00;95870.81;5125743;28;19939;-80
2023/08/30 07:47:22;;;;;;;;;;;;;;;12.78;100.00;95873.28;5126827;28;19946;-79
2023/08/30 07:49:47;;;;;;;;;;;;;;;12.87;100.00;95870.22;5125595;28;20002;-81
2023/08/30 07:52:14;;;;;;;;;;;;;;;12.96;100.00;95871.38;5127534;28;19940;-81
2023/08/30 07:54:40;;;;;;;;;;;;;;;13.02;100.00;95877.47;5126032;28;19964;-81
2023/08/30 07:57:06;;;;;;;;;;;;;;;13.07;100.00;95874.91;5126124;28;19939;-80
2023/08/30 07:59:35;;;;;;;;;;;;;;;13.08;100.00;95868.59;5125835;28;19956;-81
2023/08/30 08:02:01;;;;;;;;;;;;;;;13.11;100.00;95874.16;5126384;28;19938;-80
2023/08/30 08:04:27;;;;;;;;;;;;;;;13.17;100.00;95875.81;5126497;28;19932;-80
2023/08/30 08:06:53;;;;;;;;;;;;;;;13.20;100.00;95870.03;5125969;28;20114;-81
2023/08/30 08:09:21;;;;;;;;;;;;;;;13.26;100.00;95870.09;5126940;28;20234;-81
2023/08/30 08:11:50;;;;;;;;;;;;;;;13.34;100.00;95872.31;5126291;28;19940;-81
2023/08/30 08:14:16;;;;;;;;;;;;;;;13.41;100.00;95878.16;5126852;28;20155;-81
2023/08/30 08:16:42;;;;;;;;;;;;;;;13.48;100.00;95875.31;5126192;28;19950;-80
2023/08/30 08:19:08;;;;;;;;;;;;;;;13.52;100.00;95877.22;5125554;28;19946;-81
2023/08/30 08:21:34;;;;;;;;;;;;;;;13.58;100.00;95875.41;5126178;28;19937;-81
2023/08/30 08:24:00;;;;;;;;;;;;;;;13.64;100.00;95873.63;5126094;28;19938;-81
2023/08/30 08:26:26;;;;;;;;;;;;;;;13.70;100.00;95878.69;5126853;28;19940;-80
2023/08/30 08:28:53;;;;;;;;;;;;;;;13.78;100.00;95880.06;5126557;28;19941;-81
2023/08/30 08:31:19;;;;;;;;;;;;;;;13.87;100.00;95885.66;5125552;28;19944;-81
2023/08/30 08:33:44;;;;;;;;;;;;;;;13.90;100.00;95879.88;5124749;28;19948;-81
2023/08/30 08:36:10;;;;;;;;;;;;;;;13.95;100.00;95870.19;5125500;28;19958;-81
2023/08/30 08:38:38;;;;;;;;;;;;;;;14.01;100.00;95873.66;5125845;28;20269;-81
2023/08/30 08:41:11;;;;;;;;;;;;;;;14.07;100.00;95871.81;5125755;28;19969;-82
2023/08/30 08:43:37;;;;;;;;;;;;;;;14.14;100.00;95859.22;5108408;28;19989;-82
2023/08/30 08:46:03;;;;;;;;;;;;;;;14.23;100.00;95867.44;5124522;28;19934;-82
2023/08/30 08:48:31;;;;;;;;;;;;;;;14.35;100.00;95863.56;5126186;28;19938;-81
2023/08/30 08:50:57;;;;;;;;;;;;;;;14.53;100.00;95864.16;5125762;28;19930;-82
2023/08/30 08:53:23;;;;;;;;;;;;;;;14.62;100.00;95854.75;5125526;28;19980;-82
2023/08/30 08:55:51;;;;;;;;;;;;;;;14.75;100.00;95864.03;5125925;28;20134;-82
2023/08/30 08:58:16;;;;;;;;;;;;;;;14.84;100.00;95859.84;5125981;28;19933;-82
2023/08/30 09:00:42;;;;;;;;;;;;;;;14.94;100.00;95861.72;5125001;28;20160;-82
2023/08/30 09:03:08;;;;;;;;;;;;;;;15.02;100.00;95861.22;5125345;28;19938;-82
2023/08/30 09:05:37;;;;;;;;;;;;;;;15.19;100.00;95867.06;5125884;28;19929;-83
2023/08/30 09:08:04;;;;;;;;;;;;;;;15.35;100.00;95859.97;5124080;28;19959;-82
2023/08/30 09:10:34;;;;;;;;;;;;;;;15.47;100.00;95851.78;5125791;28;19940;-82
2023/08/30 09:13:00;;;;;;;;;;;;;;;15.46;100.00;95863.41;5124678;28;19944;-82
2023/08/30 09:15:32;;;;;;;;;;;;;;;15.53;100.00;95868.44;5125935;28;19956;-82
2023/08/30 09:17:58;;;;;;;;;;;;;;;15.65;100.00;95868.19;5125063;28;19942;-83
2023/08/30 09:20:24;;;;;;;;;;;;;;;15.78;100.00;95860.53;5125608;28;19944;-82
2023/08/30 09:22:50;;;;;;;;;;;;;;;15.90;100.00;95870.06;5125615;28;19939;-83
2023/08/30 09:25:26;;;;;;;;;;;;;;;15.96;100.00;95858.44;5125086;28;20033;-83
2023/08/30 09:28:01;;;;;;;;;;;;;;;15.96;100.00;95861.09;5125209;28;20123;-83
2023/08/30 09:30:27;;;;;;;;;;;;;;;15.96;100.00;95858.44;5124585;28;20209;-83
2023/08/30 09:32:53;;;;;;;;;;;;;;;15.98;100.00;95849.16;5125419;28;19936;-83
2023/08/30 09:35:19;;;;;;;;;;;;;;;16.00;100.00;95864.75;5123603;28;19963;-83
2023/08/30 09:37:45;;;;;;;;;;;;;;;16.08;100.00;95858.13;5107479;28;19995;-83
2023/08/30 09:40:11;;;;;;;;;;;;;;;16.18;100.00;95853.63;5124002;28;19977;-82
2023/08/30 09:42:41;;;;;;;;;;;;;;;16.24;100.00;95851.75;5124367;28;19978;-83
2023/08/30 09:45:16;;;;;;;;;;;;;;;16.29;100.00;95846.44;5124732;28;19932;-83
2023/08/30 09:47:46;;;;;;;;;;;;;;;16.35;100.00;95848.03;5124226;28;20103;-82
2023/08/30 09:50:12;;;;;;;;;;;;;;;16.49;100.00;95852.75;5123569;28;19990;-83
2023/08/30 09:52:38;;;;;;;;;;;;;;;16.63;100.00;95845.81;5124708;28;20187;-83
2023/08/30 09:55:04;;;;;;;;;;;;;;;16.66;100.00;95828.63;5124977;28;20225;-83
2023/08/30 09:57:30;;;;;;;;;;;;;;;16.72;100.00;95835.47;5124642;28;19942;-82
2023/08/30 09:59:57;;;;;;;;;;;;;;;16.82;100.00;95827.50;5123723;28;19934;-82
2023/08/30 10:02:23;;;;;;;;;;;;;;;16.95;100.00;95818.19;5123506;28;19940;-82
2023/08/30 10:04:50;;;;;;;;;;;;;;;16.99;100.00;95827.16;5123505;28;20217;-83
2023/08/30 10:07:17;;;;;;;;;;;;;;;17.00;100.00;95824.22;5123405;28;20137;-82
2023/08/30 10:09:43;;;;;;;;;;;;;;;17.13;100.00;95816.72;5123361;28;19944;-82
2023/08/30 10:12:10;;;;;;;;;;;;;;;17.27;100.00;95819.56;5124117;28;19938;-82
2023/08/30 10:14:36;;;;;;;;;;;;;;;17.32;100.00;95782.41;5123329;28;19937;-82
2023/08/30 10:17:03;;;;;;;;;;;;;;;17.35;100.00;95789.81;5124892;28;20018;-82
2023/08/30 10:19:29;;;;;;;;;;;;;;;17.32;100.00;95780.56;5124990;28;19942;-82
2023/08/30 10:22:03;;;;;;;;;;;;;;;17.28;100.00;95794.63;5124401;28;19941;-83
2023/08/30 10:24:30;;;;;;;;;;;;;;;17.35;100.00;95773.94;5127899;28;19940;-82
2023/08/30 10:26:57;;;;;;;;;;;;;;;17.30;100.00;95784.56;5128924;28;19941;-83
2023/08/30 10:29:24;;;;;;;;;;;;;;;17.29;100.00;95783.75;5128936;28;19938;-81
2023/08/30 10:31:50;;;;;;;;;;;;;;;17.43;100.00;95792.69;5128884;28;19943;-83
2023/08/30 10:34:16;;;;;;;;;;;;;;;17.54;100.00;95764.22;5127890;28;20137;-83
2023/08/30 10:36:43;;;;;;;;;;;;;;;17.71;100.00;95757.72;5127081;28;19978;-83
2023/08/30 10:39:13;;;;;;;;;;;;;;;17.85;100.00;95761.31;5128191;28;19943;-82
2023/08/30 10:41:54;;;;;;;;;;;;;;;18.01;99.89;95730.09;5128200;28;19963;-82
2023/08/30 10:44:21;;;;;;;;;;;;;;;18.16;99.19;95729.13;5111025;28;19947;-82
2023/08/30 10:46:51;;;;;;;;;;;;;;;18.25;98.74;95722.91;5126872;28;19946;-82
2023/08/30 10:49:18;;;;;;;;;;;;;;;18.35;92.25;95692.00;5127935;28;19938;-82
2023/08/30 10:51:44;;;;;;;;;;;;;;;18.36;96.02;95726.22;5127159;28;19945;-81
2023/08/30 10:54:11;;;;;;;;;;;;;;;18.36;94.81;95710.31;5127923;28;20132;-82
2023/08/30 10:56:46;;;;;;;;;;;;;;;18.34;95.29;95709.03;5128128;28;19950;-82
2023/08/30 10:59:19;;;;;;;;;;;;;;;18.43;98.93;95725.88;5128673;28;19934;-82
2023/08/30 11:01:48;;;;;;;;;;;;;;;18.50;100.00;95747.56;5109593;28;19942;-81
2023/08/30 11:04:15;;;;;;;;;;;;;;;18.60;99.59;95736.78;5127699;28;20151;-82
2023/08/30 11:06:42;;;;;;;;;;;;;;;18.81;99.84;95729.38;5128222;28;19937;-82
2023/08/30 11:09:08;;;;;;;;;;;;;;;18.98;95.33;95704.16;5109373;28;19952;-81
2023/08/30 11:11:36;;;;;;;;;;;;;;;18.98;94.60;95706.81;5128131;28;20215;-82
2023/08/30 11:14:06;;;;;;;;;;;;;;;18.94;98.39;95713.78;5109911;28;20135;-81
2023/08/30 11:16:34;;;;;;;;;;;;;;;18.85;97.44;95711.00;5126975;28;19957;-81
2023/08/30 11:19:03;;;;;;;;;;;;;;;18.84;99.65;95722.72;5126356;28;19933;-82
2023/08/30 11:21:31;;;;;;;;;;;;;;;18.91;100.00;95731.09;5127093;28;19939;-81
2023/08/30 11:23:57;;;;;;;;;;;;;;;18.92;95.45;95703.47;5127310;28;19932;-81
2023/08/30 11:26:23;;;;;;;;;;;;;;;18.95;93.33;95699.44;5126234;28;19940;-81
2023/08/30 11:28:51;;;;;;;;;;;;;;;18.93;96.73;95728.16;5127737;28;19939;-82
2023/08/30 11:31:18;;;;;;;;;;;;;;;18.79;94.97;95736.84;5127181;28;20154;-81
2023/08/30 11:33:51;;;;;;;;;;;;;;;18.46;96.26;95744.69;5126558;28;19939;-82
2023/08/30 11:36:18;;;;;;;;;;;;;;;18.10;100.00;95773.53;5108823;28;19966;-82
2023/08/30 11:38:45;;;;;;;;;;;;;;;17.81;100.00;95779.63;5127589;28;20210;-82
2023/08/30 11:41:11;;;;;;;;;;;;;;;17.50;100.00;95788.91;5127075;28;20254;-82
2023/08/30 11:43:38;;;;;;;;;;;;;;;17.24;100.00;95792.56;5126962;28;19949;-82
2023/08/30 11:46:04;;;;;;;;;;;;;;;16.99;100.00;95798.81;5126050;28;19931;-82
2023/08/30 11:48:29;;;;;;;;;;;;;;;16.81;100.00;95802.88;5127710;28;19941;-81
2023/08/30 11:50:56;;;;;;;;;;;;;;;16.69;100.00;95818.25;5126769;28;20278;-84
2023/08/30 11:53:22;;;;;;;;;;;;;;;16.62;100.00;95823.84;5126273;28;19941;-79
2023/08/30 11:55:47;;;;;;;;;;;;;;;16.60;100.00;95812.75;5127464;28;19998;-78
2023/08/30 11:58:13;;;;;;;;;;;;;;;16.55;100.00;95804.84;5126669;28;19942;-78
2023/08/30 12:00:42;;;;;;;;;;;;;;;16.49;100.00;95797.19;5126625;28;19938;-78
2023/08/30 12:03:08;;;;;;;;;;;;;;;16.40;100.00;95783.72;5125407;28;19945;-77
2023/08/30 12:05:35;;;;;;;;;;;;;;;16.34;100.00;95788.25;5126498;28;19978;-77
2023/08/30 12:08:01;;;;;;;;;;;;;;;16.33;100.00;95784.00;5126636;28;19948;-77
2023/08/30 12:10:28;;;;;;;;;;;;;;;16.38;100.00;95785.84;5125185;28;19957;-78
2023/08/30 12:12:54;;;;;;;;;;;;;;;16.42;100.00;95784.22;5125944;28;19940;-77
2023/08/30 12:15:22;;;;;;;;;;;;;;;16.41;100.00;95775.50;5126792;28;20024;-79
2023/08/30 12:17:48;;;;;;;;;;;;;;;16.42;100.00;95778.94;5125177;28;19942;-77
2023/08/30 12:20:15;;;;;;;;;;;;;;;16.42;100.00;95777.09;5126393;28;19940;-77
2023/08/30 12:22:41;;;;;;;;;;;;;;;16.46;100.00;95773.91;5126723;28;19941;-78
2023/08/30 12:25:17;;;;;;;;;;;;;;;16.48;100.00;95777.06;5126079;28;19938;-77
2023/08/30 12:27:43;;;;;;;;;;;;;;;16.49;100.00;95776.00;5125745;28;19940;-78
2023/08/30 12:30:09;;;;;;;;;;;;;;;16.52;100.00;95775.47;5126012;28;20244;-77
2023/08/30 12:32:35;;;;;;;;;;;;;;;16.55;100.00;95777.56;5126448;28;19945;-78
2023/08/30 12:35:01;;;;;;;;;;;;;;;16.56;100.00;95766.69;5126694;28;19937;-78